sensor_id;sensor_type;location;lat;lon;timestamp;P1;durP1;ratioP1;P2;durP2;ratioP2
15681;SDS011;7941;50.966;6.978;2022-07-29T00:00:09;4.53;;;2.27;;
15681;SDS011;7941;50.966;6.978;2022-07-29T00:02:35;6.10;;;2.67;;
15681;SDS011;7941;50.966;6.978;2022-07-29T00:05:02;2.87;;;2.53;;
15681;SDS011;7941;50.966;6.978;2022-07-29T00:07:28;4.17;;;2.20;;
15681;SDS011;7941;50.966;6.978;2022-07-29T00:09:54;5.93;;;2.30;;
15681;SDS011;7941;50.966;6.978;2022-07-29T00:12:22;3.90;;;2.40;;
15681;SDS011;7941;50.966;6.978;2022-07-29T00:14:48;5.37;;;2.33;;
15681;SDS011;7941;50.966;6.978;2022-07-29T00:17:14;6.87;;;2.50;;
15681;SDS011;7941;50.966;6.978;2022-07-29T00:19:40;5.63;;;2.10;;
15681;SDS011;7941;50.966;6.978;2022-07-29T00:22:07;5.80;;;2.33;;
15681;SDS011;7941;50.966;6.978;2022-07-29T00:24:33;5.90;;;2.40;;
15681;SDS011;7941;50.966;6.978;2022-07-29T00:26:59;2.13;;;1.90;;
15681;SDS011;7941;50.966;6.978;2022-07-29T00:29:25;2.93;;;2.20;;
15681;SDS011;7941;50.966;6.978;2022-07-29T00:31:51;3.40;;;2.23;;
15681;SDS011;7941;50.966;6.978;2022-07-29T00:34:17;2.87;;;2.03;;
15681;SDS011;7941;50.966;6.978;2022-07-29T00:37:02;6.37;;;2.30;;
15681;SDS011;7941;50.966;6.978;2022-07-29T00:39:29;4.33;;;2.50;;
15681;SDS011;7941;50.966;6.978;2022-07-29T00:41:55;5.33;;;2.27;;
15681;SDS011;7941;50.966;6.978;2022-07-29T00:44:21;6.73;;;1.97;;
15681;SDS011;7941;50.966;6.978;2022-07-29T00:46:47;5.63;;;2.20;;
15681;SDS011;7941;50.966;6.978;2022-07-29T00:49:13;3.40;;;2.20;;
15681;SDS011;7941;50.966;6.978;2022-07-29T00:51:39;4.37;;;2.20;;
15681;SDS011;7941;50.966;6.978;2022-07-29T00:54:06;6.27;;;1.97;;
15681;SDS011;7941;50.966;6.978;2022-07-29T00:56:33;3.10;;;1.80;;
15681;SDS011;7941;50.966;6.978;2022-07-29T00:58:59;7.93;;;2.53;;
15681;SDS011;7941;50.966;6.978;2022-07-29T01:01:26;5.70;;;2.00;;
15681;SDS011;7941;50.966;6.978;2022-07-29T01:03:53;5.70;;;2.33;;
15681;SDS011;7941;50.966;6.978;2022-07-29T01:06:19;4.13;;;2.43;;
15681;SDS011;7941;50.966;6.978;2022-07-29T01:08:46;4.80;;;2.00;;
15681;SDS011;7941;50.966;6.978;2022-07-29T01:11:13;5.90;;;2.37;;
15681;SDS011;7941;50.966;6.978;2022-07-29T01:13:40;3.50;;;2.30;;
15681;SDS011;7941;50.966;6.978;2022-07-29T01:16:08;4.17;;;1.90;;
15681;SDS011;7941;50.966;6.978;2022-07-29T01:18:40;4.27;;;2.10;;
15681;SDS011;7941;50.966;6.978;2022-07-29T01:21:13;4.63;;;2.30;;
15681;SDS011;7941;50.966;6.978;2022-07-29T01:31:24;4.97;;;1.83;;
15681;SDS011;7941;50.966;6.978;2022-07-29T01:33:55;4.27;;;2.10;;
15681;SDS011;7941;50.966;6.978;2022-07-29T01:36:25;3.67;;;1.90;;
15681;SDS011;7941;50.966;6.978;2022-07-29T01:39:05;7.33;;;2.47;;
15681;SDS011;7941;50.966;6.978;2022-07-29T01:41:31;6.53;;;2.53;;
15681;SDS011;7941;50.966;6.978;2022-07-29T01:43:59;3.33;;;1.90;;
15681;SDS011;7941;50.966;6.978;2022-07-29T01:46:30;6.63;;;2.53;;
15681;SDS011;7941;50.966;6.978;2022-07-29T01:49:00;4.33;;;2.17;;
15681;SDS011;7941;50.966;6.978;2022-07-29T01:51:29;5.97;;;2.40;;
15681;SDS011;7941;50.966;6.978;2022-07-29T01:56:23;4.13;;;2.40;;
15681;SDS011;7941;50.966;6.978;2022-07-29T01:58:49;3.67;;;2.30;;
15681;SDS011;7941;50.966;6.978;2022-07-29T02:01:16;6.70;;;2.60;;
15681;SDS011;7941;50.966;6.978;2022-07-29T02:03:44;7.57;;;2.70;;
15681;SDS011;7941;50.966;6.978;2022-07-29T02:06:10;3.17;;;2.33;;
15681;SDS011;7941;50.966;6.978;2022-07-29T02:08:37;5.47;;;3.00;;
15681;SDS011;7941;50.966;6.978;2022-07-29T02:11:03;4.97;;;2.20;;
15681;SDS011;7941;50.966;6.978;2022-07-29T02:13:30;3.57;;;2.60;;
15681;SDS011;7941;50.966;6.978;2022-07-29T02:15:57;6.17;;;2.50;;
15681;SDS011;7941;50.966;6.978;2022-07-29T02:18:24;7.33;;;2.80;;
15681;SDS011;7941;50.966;6.978;2022-07-29T02:20:52;3.47;;;2.33;;
15681;SDS011;7941;50.966;6.978;2022-07-29T02:23:20;5.50;;;3.00;;
15681;SDS011;7941;50.966;6.978;2022-07-29T02:25:55;5.67;;;2.53;;
15681;SDS011;7941;50.966;6.978;2022-07-29T02:28:22;5.87;;;3.47;;
15681;SDS011;7941;50.966;6.978;2022-07-29T02:30:49;6.03;;;3.00;;
15681;SDS011;7941;50.966;6.978;2022-07-29T02:33:17;4.50;;;2.50;;
15681;SDS011;7941;50.966;6.978;2022-07-29T02:35:44;8.77;;;2.40;;
15681;SDS011;7941;50.966;6.978;2022-07-29T02:38:12;5.67;;;2.57;;
15681;SDS011;7941;50.966;6.978;2022-07-29T02:41:20;5.33;;;2.77;;
15681;SDS011;7941;50.966;6.978;2022-07-29T02:43:50;6.10;;;2.50;;
15681;SDS011;7941;50.966;6.978;2022-07-29T02:46:21;5.83;;;2.70;;
15681;SDS011;7941;50.966;6.978;2022-07-29T02:49:37;5.83;;;3.20;;
15681;SDS011;7941;50.966;6.978;2022-07-29T02:51:45;6.93;;;2.63;;
15681;SDS011;7941;50.966;6.978;2022-07-29T02:54:14;6.97;;;3.00;;
15681;SDS011;7941;50.966;6.978;2022-07-29T02:56:45;8.37;;;2.67;;
15681;SDS011;7941;50.966;6.978;2022-07-29T02:59:13;5.97;;;2.47;;
15681;SDS011;7941;50.966;6.978;2022-07-29T03:01:42;4.53;;;2.23;;
15681;SDS011;7941;50.966;6.978;2022-07-29T03:04:09;5.03;;;2.70;;
15681;SDS011;7941;50.966;6.978;2022-07-29T03:06:35;3.67;;;2.63;;
15681;SDS011;7941;50.966;6.978;2022-07-29T03:09:03;6.47;;;2.80;;
15681;SDS011;7941;50.966;6.978;2022-07-29T03:11:29;6.37;;;2.50;;
15681;SDS011;7941;50.966;6.978;2022-07-29T03:13:56;4.47;;;2.70;;
15681;SDS011;7941;50.966;6.978;2022-07-29T03:16:22;4.07;;;2.60;;
15681;SDS011;7941;50.966;6.978;2022-07-29T03:18:49;4.33;;;2.30;;
15681;SDS011;7941;50.966;6.978;2022-07-29T03:21:16;3.10;;;2.30;;
15681;SDS011;7941;50.966;6.978;2022-07-29T03:23:45;4.70;;;2.40;;
15681;SDS011;7941;50.966;6.978;2022-07-29T03:26:12;2.77;;;2.07;;
15681;SDS011;7941;50.966;6.978;2022-07-29T03:28:38;6.57;;;2.57;;
15681;SDS011;7941;50.966;6.978;2022-07-29T03:31:04;5.13;;;2.80;;
15681;SDS011;7941;50.966;6.978;2022-07-29T03:33:30;3.30;;;2.20;;
15681;SDS011;7941;50.966;6.978;2022-07-29T03:35:56;7.37;;;2.30;;
15681;SDS011;7941;50.966;6.978;2022-07-29T03:38:23;7.57;;;2.33;;
15681;SDS011;7941;50.966;6.978;2022-07-29T03:40:56;3.80;;;2.37;;
15681;SDS011;7941;50.966;6.978;2022-07-29T03:43:22;5.60;;;2.30;;
15681;SDS011;7941;50.966;6.978;2022-07-29T03:45:51;3.23;;;2.20;;
15681;SDS011;7941;50.966;6.978;2022-07-29T03:48:20;8.23;;;2.77;;
15681;SDS011;7941;50.966;6.978;2022-07-29T03:50:46;4.37;;;2.37;;
15681;SDS011;7941;50.966;6.978;2022-07-29T03:53:12;6.17;;;2.77;;
15681;SDS011;7941;50.966;6.978;2022-07-29T03:55:48;8.30;;;2.53;;
15681;SDS011;7941;50.966;6.978;2022-07-29T03:58:16;6.20;;;2.33;;
15681;SDS011;7941;50.966;6.978;2022-07-29T04:00:43;8.40;;;2.77;;
15681;SDS011;7941;50.966;6.978;2022-07-29T04:03:10;6.43;;;2.70;;
15681;SDS011;7941;50.966;6.978;2022-07-29T04:05:36;7.10;;;3.20;;
15681;SDS011;7941;50.966;6.978;2022-07-29T04:08:02;7.23;;;2.70;;
15681;SDS011;7941;50.966;6.978;2022-07-29T04:10:28;7.70;;;2.93;;
15681;SDS011;7941;50.966;6.978;2022-07-29T04:12:54;7.13;;;3.07;;
15681;SDS011;7941;50.966;6.978;2022-07-29T04:15:20;5.47;;;2.77;;
15681;SDS011;7941;50.966;6.978;2022-07-29T04:17:47;5.80;;;2.80;;
15681;SDS011;7941;50.966;6.978;2022-07-29T04:20:13;5.47;;;2.87;;
15681;SDS011;7941;50.966;6.978;2022-07-29T04:22:39;3.27;;;2.30;;
15681;SDS011;7941;50.966;6.978;2022-07-29T04:25:06;9.23;;;2.97;;
15681;SDS011;7941;50.966;6.978;2022-07-29T04:27:32;5.10;;;2.70;;
15681;SDS011;7941;50.966;6.978;2022-07-29T04:29:58;6.23;;;2.53;;
15681;SDS011;7941;50.966;6.978;2022-07-29T04:32:25;7.30;;;2.43;;
15681;SDS011;7941;50.966;6.978;2022-07-29T04:34:51;6.43;;;2.50;;
15681;SDS011;7941;50.966;6.978;2022-07-29T04:37:18;7.03;;;2.97;;
15681;SDS011;7941;50.966;6.978;2022-07-29T04:39:44;7.17;;;2.67;;
15681;SDS011;7941;50.966;6.978;2022-07-29T04:42:10;4.57;;;2.33;;
15681;SDS011;7941;50.966;6.978;2022-07-29T04:44:36;6.50;;;2.77;;
15681;SDS011;7941;50.966;6.978;2022-07-29T04:47:02;6.00;;;2.70;;
15681;SDS011;7941;50.966;6.978;2022-07-29T04:49:28;6.93;;;2.73;;
15681;SDS011;7941;50.966;6.978;2022-07-29T04:51:54;3.30;;;2.20;;
15681;SDS011;7941;50.966;6.978;2022-07-29T04:54:22;10.50;;;3.03;;
15681;SDS011;7941;50.966;6.978;2022-07-29T04:56:48;8.77;;;1.93;;
15681;SDS011;7941;50.966;6.978;2022-07-29T04:59:14;7.20;;;2.70;;
15681;SDS011;7941;50.966;6.978;2022-07-29T05:01:40;8.40;;;2.87;;
15681;SDS011;7941;50.966;6.978;2022-07-29T05:04:06;4.87;;;2.97;;
15681;SDS011;7941;50.966;6.978;2022-07-29T05:06:32;7.77;;;3.53;;
15681;SDS011;7941;50.966;6.978;2022-07-29T05:08:58;8.20;;;3.10;;
15681;SDS011;7941;50.966;6.978;2022-07-29T05:11:24;8.37;;;3.27;;
15681;SDS011;7941;50.966;6.978;2022-07-29T05:13:50;4.27;;;3.00;;
15681;SDS011;7941;50.966;6.978;2022-07-29T05:16:16;6.97;;;3.07;;
15681;SDS011;7941;50.966;6.978;2022-07-29T05:18:42;6.93;;;3.07;;
15681;SDS011;7941;50.966;6.978;2022-07-29T05:21:10;7.17;;;3.00;;
15681;SDS011;7941;50.966;6.978;2022-07-29T05:23:36;7.20;;;3.07;;
15681;SDS011;7941;50.966;6.978;2022-07-29T05:26:02;12.00;;;3.43;;
15681;SDS011;7941;50.966;6.978;2022-07-29T05:28:28;8.23;;;2.90;;
15681;SDS011;7941;50.966;6.978;2022-07-29T05:30:55;9.63;;;3.53;;
15681;SDS011;7941;50.966;6.978;2022-07-29T05:33:21;5.60;;;2.83;;
15681;SDS011;7941;50.966;6.978;2022-07-29T05:35:47;7.27;;;3.37;;
15681;SDS011;7941;50.966;6.978;2022-07-29T05:38:13;6.87;;;2.83;;
15681;SDS011;7941;50.966;6.978;2022-07-29T05:40:39;6.73;;;2.97;;
15681;SDS011;7941;50.966;6.978;2022-07-29T05:43:05;6.97;;;3.10;;
15681;SDS011;7941;50.966;6.978;2022-07-29T05:45:31;6.80;;;2.83;;
15681;SDS011;7941;50.966;6.978;2022-07-29T05:47:57;7.73;;;2.67;;
15681;SDS011;7941;50.966;6.978;2022-07-29T05:50:23;4.47;;;2.60;;
15681;SDS011;7941;50.966;6.978;2022-07-29T05:52:49;4.13;;;2.80;;
15681;SDS011;7941;50.966;6.978;2022-07-29T05:55:16;5.30;;;2.80;;
15681;SDS011;7941;50.966;6.978;2022-07-29T05:57:42;4.77;;;2.17;;
15681;SDS011;7941;50.966;6.978;2022-07-29T06:00:10;6.30;;;2.43;;
15681;SDS011;7941;50.966;6.978;2022-07-29T06:02:36;4.97;;;2.67;;
15681;SDS011;7941;50.966;6.978;2022-07-29T06:05:02;5.93;;;3.00;;
15681;SDS011;7941;50.966;6.978;2022-07-29T06:07:29;4.40;;;2.40;;
15681;SDS011;7941;50.966;6.978;2022-07-29T06:09:55;5.20;;;2.57;;
15681;SDS011;7941;50.966;6.978;2022-07-29T06:12:21;5.13;;;2.40;;
15681;SDS011;7941;50.966;6.978;2022-07-29T06:14:48;10.10;;;2.67;;
15681;SDS011;7941;50.966;6.978;2022-07-29T06:17:15;4.53;;;2.77;;
15681;SDS011;7941;50.966;6.978;2022-07-29T06:19:42;6.33;;;2.90;;
15681;SDS011;7941;50.966;6.978;2022-07-29T06:22:08;6.40;;;2.50;;
15681;SDS011;7941;50.966;6.978;2022-07-29T06:24:34;6.80;;;2.83;;
15681;SDS011;7941;50.966;6.978;2022-07-29T06:27:02;5.40;;;2.60;;
15681;SDS011;7941;50.966;6.978;2022-07-29T06:29:29;6.43;;;2.67;;
15681;SDS011;7941;50.966;6.978;2022-07-29T06:31:55;7.50;;;2.93;;
15681;SDS011;7941;50.966;6.978;2022-07-29T06:34:21;8.97;;;2.67;;
15681;SDS011;7941;50.966;6.978;2022-07-29T06:36:47;6.73;;;2.70;;
15681;SDS011;7941;50.966;6.978;2022-07-29T06:39:14;9.90;;;2.97;;
15681;SDS011;7941;50.966;6.978;2022-07-29T06:41:41;6.57;;;3.07;;
15681;SDS011;7941;50.966;6.978;2022-07-29T06:44:07;8.90;;;3.10;;
15681;SDS011;7941;50.966;6.978;2022-07-29T06:46:33;7.17;;;2.60;;
15681;SDS011;7941;50.966;6.978;2022-07-29T06:48:59;11.63;;;3.30;;
15681;SDS011;7941;50.966;6.978;2022-07-29T06:51:27;6.23;;;3.00;;
15681;SDS011;7941;50.966;6.978;2022-07-29T06:53:53;7.33;;;2.83;;
15681;SDS011;7941;50.966;6.978;2022-07-29T06:56:19;9.07;;;3.20;;
15681;SDS011;7941;50.966;6.978;2022-07-29T06:58:45;5.67;;;2.77;;
15681;SDS011;7941;50.966;6.978;2022-07-29T07:01:11;8.63;;;2.70;;
15681;SDS011;7941;50.966;6.978;2022-07-29T07:03:37;4.57;;;2.50;;
15681;SDS011;7941;50.966;6.978;2022-07-29T07:06:03;6.23;;;3.00;;
15681;SDS011;7941;50.966;6.978;2022-07-29T07:08:29;9.60;;;2.97;;
15681;SDS011;7941;50.966;6.978;2022-07-29T07:10:55;6.83;;;2.70;;
15681;SDS011;7941;50.966;6.978;2022-07-29T07:13:22;8.40;;;2.93;;
15681;SDS011;7941;50.966;6.978;2022-07-29T07:15:48;8.80;;;2.83;;
15681;SDS011;7941;50.966;6.978;2022-07-29T07:18:16;5.30;;;2.50;;
15681;SDS011;7941;50.966;6.978;2022-07-29T07:20:42;8.60;;;3.10;;
15681;SDS011;7941;50.966;6.978;2022-07-29T07:23:08;8.43;;;3.30;;
15681;SDS011;7941;50.966;6.978;2022-07-29T07:25:35;6.50;;;2.63;;
15681;SDS011;7941;50.966;6.978;2022-07-29T07:28:01;9.87;;;2.70;;
15681;SDS011;7941;50.966;6.978;2022-07-29T07:30:28;6.40;;;3.27;;
15681;SDS011;7941;50.966;6.978;2022-07-29T07:32:54;8.17;;;2.97;;
15681;SDS011;7941;50.966;6.978;2022-07-29T07:35:20;5.87;;;2.63;;
15681;SDS011;7941;50.966;6.978;2022-07-29T07:37:46;10.63;;;5.17;;
15681;SDS011;7941;50.966;6.978;2022-07-29T07:40:13;7.40;;;3.17;;
15681;SDS011;7941;50.966;6.978;2022-07-29T07:42:39;6.73;;;2.90;;
15681;SDS011;7941;50.966;6.978;2022-07-29T07:45:06;9.83;;;3.20;;
15681;SDS011;7941;50.966;6.978;2022-07-29T07:47:34;10.13;;;3.50;;
15681;SDS011;7941;50.966;6.978;2022-07-29T07:50:00;6.77;;;2.60;;
15681;SDS011;7941;50.966;6.978;2022-07-29T07:52:26;6.67;;;3.00;;
15681;SDS011;7941;50.966;6.978;2022-07-29T07:54:52;4.97;;;2.57;;
15681;SDS011;7941;50.966;6.978;2022-07-29T07:57:18;9.20;;;2.80;;
15681;SDS011;7941;50.966;6.978;2022-07-29T07:59:44;7.77;;;2.87;;
15681;SDS011;7941;50.966;6.978;2022-07-29T08:02:11;6.70;;;2.60;;
15681;SDS011;7941;50.966;6.978;2022-07-29T08:04:37;9.33;;;2.93;;
15681;SDS011;7941;50.966;6.978;2022-07-29T08:07:05;9.13;;;3.17;;
15681;SDS011;7941;50.966;6.978;2022-07-29T08:09:32;10.13;;;3.07;;
15681;SDS011;7941;50.966;6.978;2022-07-29T08:11:59;11.00;;;3.00;;
15681;SDS011;7941;50.966;6.978;2022-07-29T08:14:28;6.80;;;2.90;;
15681;SDS011;7941;50.966;6.978;2022-07-29T08:16:54;8.83;;;3.23;;
15681;SDS011;7941;50.966;6.978;2022-07-29T08:19:21;6.70;;;3.20;;
15681;SDS011;7941;50.966;6.978;2022-07-29T08:21:47;5.70;;;3.17;;
15681;SDS011;7941;50.966;6.978;2022-07-29T08:24:13;9.47;;;3.10;;
15681;SDS011;7941;50.966;6.978;2022-07-29T08:26:58;5.97;;;4.27;;
15681;SDS011;7941;50.966;6.978;2022-07-29T08:29:24;12.47;;;4.30;;
15681;SDS011;7941;50.966;6.978;2022-07-29T08:31:50;7.17;;;4.27;;
15681;SDS011;7941;50.966;6.978;2022-07-29T08:34:16;11.13;;;4.97;;
15681;SDS011;7941;50.966;6.978;2022-07-29T08:36:42;6.50;;;3.80;;
15681;SDS011;7941;50.966;6.978;2022-07-29T08:39:08;10.33;;;4.87;;
15681;SDS011;7941;50.966;6.978;2022-07-29T08:41:35;6.93;;;5.67;;
15681;SDS011;7941;50.966;6.978;2022-07-29T08:44:01;9.70;;;4.10;;
15681;SDS011;7941;50.966;6.978;2022-07-29T08:46:27;9.73;;;3.60;;
15681;SDS011;7941;50.966;6.978;2022-07-29T08:48:53;9.93;;;3.87;;
15681;SDS011;7941;50.966;6.978;2022-07-29T08:51:21;8.03;;;3.80;;
15681;SDS011;7941;50.966;6.978;2022-07-29T08:53:47;6.90;;;3.80;;
15681;SDS011;7941;50.966;6.978;2022-07-29T08:56:15;7.40;;;3.77;;
15681;SDS011;7941;50.966;6.978;2022-07-29T08:58:47;13.57;;;6.33;;
15681;SDS011;7941;50.966;6.978;2022-07-29T09:01:14;8.47;;;4.60;;
15681;SDS011;7941;50.966;6.978;2022-07-29T09:03:41;9.20;;;3.43;;
15681;SDS011;7941;50.966;6.978;2022-07-29T09:06:12;8.03;;;3.13;;
15681;SDS011;7941;50.966;6.978;2022-07-29T09:08:38;4.17;;;3.20;;
15681;SDS011;7941;50.966;6.978;2022-07-29T09:11:05;9.93;;;3.27;;
15681;SDS011;7941;50.966;6.978;2022-07-29T09:13:33;6.50;;;3.00;;
15681;SDS011;7941;50.966;6.978;2022-07-29T09:15:59;9.97;;;3.67;;
15681;SDS011;7941;50.966;6.978;2022-07-29T09:18:35;7.77;;;3.83;;
15681;SDS011;7941;50.966;6.978;2022-07-29T09:21:01;9.43;;;3.93;;
15681;SDS011;7941;50.966;6.978;2022-07-29T09:26:27;6.50;;;3.43;;
15681;SDS011;7941;50.966;6.978;2022-07-29T09:28:54;9.47;;;4.03;;
15681;SDS011;7941;50.966;6.978;2022-07-29T09:31:26;9.23;;;3.90;;
15681;SDS011;7941;50.966;6.978;2022-07-29T09:33:58;8.17;;;4.00;;
15681;SDS011;7941;50.966;6.978;2022-07-29T09:36:25;8.47;;;4.23;;
15681;SDS011;7941;50.966;6.978;2022-07-29T09:38:58;12.40;;;4.50;;
15681;SDS011;7941;50.966;6.978;2022-07-29T09:41:25;11.73;;;4.30;;
15681;SDS011;7941;50.966;6.978;2022-07-29T09:43:57;6.33;;;3.90;;
15681;SDS011;7941;50.966;6.978;2022-07-29T09:46:24;5.37;;;3.60;;
15681;SDS011;7941;50.966;6.978;2022-07-29T09:49:06;10.03;;;3.67;;
15681;SDS011;7941;50.966;6.978;2022-07-29T09:51:36;6.77;;;3.80;;
15681;SDS011;7941;50.966;6.978;2022-07-29T09:54:20;8.90;;;4.47;;
15681;SDS011;7941;50.966;6.978;2022-07-29T09:56:47;10.13;;;4.17;;
15681;SDS011;7941;50.966;6.978;2022-07-29T09:59:13;6.60;;;3.83;;
15681;SDS011;7941;50.966;6.978;2022-07-29T10:01:40;9.83;;;4.10;;
15681;SDS011;7941;50.966;6.978;2022-07-29T10:04:06;8.37;;;3.87;;
15681;SDS011;7941;50.966;6.978;2022-07-29T10:06:32;6.20;;;3.87;;
15681;SDS011;7941;50.966;6.978;2022-07-29T10:09:08;6.53;;;3.90;;
15681;SDS011;7941;50.966;6.978;2022-07-29T10:11:34;8.00;;;4.20;;
15681;SDS011;7941;50.966;6.978;2022-07-29T10:14:01;5.30;;;4.10;;
15681;SDS011;7941;50.966;6.978;2022-07-29T10:16:27;7.40;;;3.60;;
15681;SDS011;7941;50.966;6.978;2022-07-29T10:18:58;4.20;;;2.93;;
15681;SDS011;7941;50.966;6.978;2022-07-29T10:21:27;8.83;;;4.40;;
15681;SDS011;7941;50.966;6.978;2022-07-29T10:23:53;5.60;;;3.63;;
15681;SDS011;7941;50.966;6.978;2022-07-29T10:26:19;5.60;;;3.47;;
15681;SDS011;7941;50.966;6.978;2022-07-29T10:28:45;8.53;;;3.30;;
15681;SDS011;7941;50.966;6.978;2022-07-29T10:31:15;5.13;;;3.20;;
15681;SDS011;7941;50.966;6.978;2022-07-29T10:33:47;6.93;;;3.80;;
15681;SDS011;7941;50.966;6.978;2022-07-29T10:39:18;5.97;;;3.87;;
15681;SDS011;7941;50.966;6.978;2022-07-29T10:44:23;6.23;;;3.20;;
15681;SDS011;7941;50.966;6.978;2022-07-29T10:46:51;6.00;;;3.57;;
15681;SDS011;7941;50.966;6.978;2022-07-29T10:49:25;7.07;;;3.37;;
15681;SDS011;7941;50.966;6.978;2022-07-29T10:51:59;11.73;;;3.73;;
15681;SDS011;7941;50.966;6.978;2022-07-29T10:57:34;6.90;;;3.70;;
15681;SDS011;7941;50.966;6.978;2022-07-29T11:07:31;5.13;;;2.17;;
15681;SDS011;7941;50.966;6.978;2022-07-29T11:10:22;6.30;;;3.33;;
15681;SDS011;7941;50.966;6.978;2022-07-29T11:12:47;4.27;;;3.10;;
15681;SDS011;7941;50.966;6.978;2022-07-29T11:15:14;6.70;;;3.70;;
15681;SDS011;7941;50.966;6.978;2022-07-29T11:23:17;4.53;;;3.07;;
15681;SDS011;7941;50.966;6.978;2022-07-29T11:25:45;7.83;;;3.13;;
15681;SDS011;7941;50.966;6.978;2022-07-29T11:28:16;6.70;;;3.40;;
15681;SDS011;7941;50.966;6.978;2022-07-29T11:30:52;7.40;;;3.23;;
15681;SDS011;7941;50.966;6.978;2022-07-29T11:33:30;4.67;;;2.80;;
15681;SDS011;7941;50.966;6.978;2022-07-29T11:36:13;2.93;;;2.50;;
15681;SDS011;7941;50.966;6.978;2022-07-29T11:38:39;5.63;;;3.10;;
15681;SDS011;7941;50.966;6.978;2022-07-29T11:43:57;5.47;;;3.07;;
15681;SDS011;7941;50.966;6.978;2022-07-29T11:49:09;5.80;;;2.90;;
15681;SDS011;7941;50.966;6.978;2022-07-29T11:51:36;5.20;;;2.93;;
15681;SDS011;7941;50.966;6.978;2022-07-29T11:54:03;6.03;;;3.00;;
15681;SDS011;7941;50.966;6.978;2022-07-29T11:56:30;3.33;;;2.40;;
15681;SDS011;7941;50.966;6.978;2022-07-29T11:59:03;9.03;;;3.93;;
15681;SDS011;7941;50.966;6.978;2022-07-29T12:01:30;6.97;;;3.70;;
15681;SDS011;7941;50.966;6.978;2022-07-29T12:04:06;5.57;;;2.47;;
15681;SDS011;7941;50.966;6.978;2022-07-29T12:06:33;4.73;;;2.87;;
15681;SDS011;7941;50.966;6.978;2022-07-29T12:08:59;7.30;;;2.57;;
15681;SDS011;7941;50.966;6.978;2022-07-29T12:11:25;4.63;;;3.30;;
15681;SDS011;7941;50.966;6.978;2022-07-29T12:13:52;5.17;;;2.43;;
15681;SDS011;7941;50.966;6.978;2022-07-29T12:16:19;4.37;;;2.47;;
15681;SDS011;7941;50.966;6.978;2022-07-29T12:18:55;7.53;;;2.77;;
15681;SDS011;7941;50.966;6.978;2022-07-29T12:21:21;5.13;;;2.30;;
15681;SDS011;7941;50.966;6.978;2022-07-29T12:23:54;6.43;;;2.20;;
15681;SDS011;7941;50.966;6.978;2022-07-29T12:26:20;4.07;;;2.07;;
15681;SDS011;7941;50.966;6.978;2022-07-29T12:28:46;3.67;;;1.97;;
15681;SDS011;7941;50.966;6.978;2022-07-29T12:31:13;5.53;;;2.20;;
15681;SDS011;7941;50.966;6.978;2022-07-29T12:33:39;4.83;;;2.30;;
15681;SDS011;7941;50.966;6.978;2022-07-29T12:36:05;5.90;;;3.00;;
15681;SDS011;7941;50.966;6.978;2022-07-29T12:38:33;5.17;;;2.57;;
15681;SDS011;7941;50.966;6.978;2022-07-29T12:40:59;7.83;;;2.67;;
15681;SDS011;7941;50.966;6.978;2022-07-29T12:43:26;3.17;;;2.27;;
15681;SDS011;7941;50.966;6.978;2022-07-29T12:45:55;4.63;;;2.40;;
15681;SDS011;7941;50.966;6.978;2022-07-29T12:48:38;3.53;;;2.30;;
15681;SDS011;7941;50.966;6.978;2022-07-29T12:51:05;3.90;;;2.23;;
15681;SDS011;7941;50.966;6.978;2022-07-29T12:53:32;4.10;;;2.53;;
15681;SDS011;7941;50.966;6.978;2022-07-29T12:55:58;3.97;;;2.33;;
15681;SDS011;7941;50.966;6.978;2022-07-29T13:01:09;5.00;;;2.30;;
15681;SDS011;7941;50.966;6.978;2022-07-29T13:03:43;4.97;;;2.20;;
15681;SDS011;7941;50.966;6.978;2022-07-29T13:06:32;4.70;;;2.40;;
15681;SDS011;7941;50.966;6.978;2022-07-29T13:08:59;6.73;;;6.03;;
15681;SDS011;7941;50.966;6.978;2022-07-29T13:11:32;3.13;;;2.30;;
15681;SDS011;7941;50.966;6.978;2022-07-29T13:13:59;3.57;;;2.30;;
15681;SDS011;7941;50.966;6.978;2022-07-29T13:16:25;4.67;;;2.37;;
15681;SDS011;7941;50.966;6.978;2022-07-29T13:19:04;3.23;;;2.20;;
15681;SDS011;7941;50.966;6.978;2022-07-29T13:21:31;4.00;;;2.20;;
15681;SDS011;7941;50.966;6.978;2022-07-29T13:23:57;4.67;;;1.90;;
15681;SDS011;7941;50.966;6.978;2022-07-29T13:26:23;3.77;;;2.03;;
15681;SDS011;7941;50.966;6.978;2022-07-29T13:28:49;3.17;;;2.10;;
15681;SDS011;7941;50.966;6.978;2022-07-29T13:31:15;4.13;;;2.10;;
15681;SDS011;7941;50.966;6.978;2022-07-29T13:33:41;4.17;;;2.37;;
15681;SDS011;7941;50.966;6.978;2022-07-29T13:36:07;4.77;;;2.57;;
15681;SDS011;7941;50.966;6.978;2022-07-29T13:38:33;4.67;;;2.20;;
15681;SDS011;7941;50.966;6.978;2022-07-29T13:41:00;4.83;;;2.30;;
15681;SDS011;7941;50.966;6.978;2022-07-29T13:43:26;6.37;;;2.87;;
15681;SDS011;7941;50.966;6.978;2022-07-29T13:45:52;4.20;;;3.10;;
15681;SDS011;7941;50.966;6.978;2022-07-29T13:48:19;3.87;;;2.70;;
15681;SDS011;7941;50.966;6.978;2022-07-29T13:50:45;4.87;;;2.70;;
15681;SDS011;7941;50.966;6.978;2022-07-29T13:53:12;5.47;;;3.43;;
15681;SDS011;7941;50.966;6.978;2022-07-29T13:55:39;7.63;;;3.40;;
15681;SDS011;7941;50.966;6.978;2022-07-29T13:58:05;6.90;;;3.27;;
15681;SDS011;7941;50.966;6.978;2022-07-29T14:00:31;7.87;;;3.30;;
15681;SDS011;7941;50.966;6.978;2022-07-29T14:02:57;6.20;;;3.73;;
15681;SDS011;7941;50.966;6.978;2022-07-29T14:05:23;5.63;;;3.50;;
15681;SDS011;7941;50.966;6.978;2022-07-29T14:07:49;6.83;;;3.20;;
15681;SDS011;7941;50.966;6.978;2022-07-29T14:10:15;8.30;;;3.33;;
15681;SDS011;7941;50.966;6.978;2022-07-29T14:12:41;6.20;;;3.87;;
15681;SDS011;7941;50.966;6.978;2022-07-29T14:15:08;5.57;;;3.43;;
15681;SDS011;7941;50.966;6.978;2022-07-29T14:17:34;5.77;;;3.20;;
15681;SDS011;7941;50.966;6.978;2022-07-29T14:20:00;7.87;;;3.67;;
15681;SDS011;7941;50.966;6.978;2022-07-29T14:22:26;7.47;;;4.33;;
15681;SDS011;7941;50.966;6.978;2022-07-29T14:24:53;7.83;;;3.77;;
15681;SDS011;7941;50.966;6.978;2022-07-29T14:27:19;10.07;;;3.50;;
15681;SDS011;7941;50.966;6.978;2022-07-29T14:29:45;10.90;;;4.37;;
15681;SDS011;7941;50.966;6.978;2022-07-29T14:32:11;6.20;;;3.40;;
15681;SDS011;7941;50.966;6.978;2022-07-29T14:34:39;5.60;;;3.60;;
15681;SDS011;7941;50.966;6.978;2022-07-29T14:37:05;7.10;;;4.33;;
15681;SDS011;7941;50.966;6.978;2022-07-29T14:39:31;8.30;;;4.17;;
15681;SDS011;7941;50.966;6.978;2022-07-29T14:41:58;6.97;;;3.50;;
15681;SDS011;7941;50.966;6.978;2022-07-29T14:44:24;6.10;;;3.73;;
15681;SDS011;7941;50.966;6.978;2022-07-29T14:46:55;8.87;;;5.83;;
15681;SDS011;7941;50.966;6.978;2022-07-29T14:49:22;6.63;;;3.70;;
15681;SDS011;7941;50.966;6.978;2022-07-29T14:51:48;11.43;;;3.30;;
15681;SDS011;7941;50.966;6.978;2022-07-29T14:54:15;6.90;;;3.70;;
15681;SDS011;7941;50.966;6.978;2022-07-29T14:56:41;7.47;;;3.47;;
15681;SDS011;7941;50.966;6.978;2022-07-29T14:59:07;5.83;;;3.20;;
15681;SDS011;7941;50.966;6.978;2022-07-29T15:01:33;6.37;;;3.00;;
15681;SDS011;7941;50.966;6.978;2022-07-29T15:03:59;7.00;;;3.53;;
15681;SDS011;7941;50.966;6.978;2022-07-29T15:06:26;4.37;;;3.20;;
15681;SDS011;7941;50.966;6.978;2022-07-29T15:08:52;6.40;;;3.40;;
15681;SDS011;7941;50.966;6.978;2022-07-29T15:11:18;6.07;;;3.17;;
15681;SDS011;7941;50.966;6.978;2022-07-29T15:13:44;6.37;;;3.07;;
15681;SDS011;7941;50.966;6.978;2022-07-29T15:16:11;7.50;;;3.43;;
15681;SDS011;7941;50.966;6.978;2022-07-29T15:18:37;5.37;;;3.20;;
15681;SDS011;7941;50.966;6.978;2022-07-29T15:21:03;7.60;;;3.17;;
15681;SDS011;7941;50.966;6.978;2022-07-29T15:23:31;4.97;;;3.20;;
15681;SDS011;7941;50.966;6.978;2022-07-29T15:25:58;4.00;;;3.00;;
15681;SDS011;7941;50.966;6.978;2022-07-29T15:28:24;5.20;;;3.00;;
15681;SDS011;7941;50.966;6.978;2022-07-29T15:30:50;4.90;;;2.80;;
15681;SDS011;7941;50.966;6.978;2022-07-29T15:33:16;7.03;;;2.47;;
15681;SDS011;7941;50.966;6.978;2022-07-29T15:35:43;3.80;;;3.03;;
15681;SDS011;7941;50.966;6.978;2022-07-29T15:38:09;7.03;;;3.00;;
15681;SDS011;7941;50.966;6.978;2022-07-29T15:40:36;5.70;;;3.00;;
15681;SDS011;7941;50.966;6.978;2022-07-29T15:43:05;12.53;;;2.80;;
15681;SDS011;7941;50.966;6.978;2022-07-29T15:45:35;3.73;;;2.63;;